Time;durP1;ratioP1;P1;durP2;ratioP2;P2;SDS_P1;SDS_P2;PMS_P1;PMS_P2;Temp;Humidity;BMP_temperature;BMP_pressure;BME280_temperature;BME280_humidity;BME280_pressure;Samples;Min_cycle;Max_cycle;Signal;HPM_P1;HPM_P2
2024/03/07 00:02:13;;;;;;;;;28.33;25.00;;;;;;;;5025116;28;45297;-80
2024/03/07 00:04:38;;;;;;;;;24.00;24.00;;;;;;;;5006233;28;46046;-81
2024/03/07 00:07:03;;;;;;;;;25.00;23.33;;;;;;;;5006399;28;48135;-80
2024/03/07 00:09:31;;;;;;;;;27.00;25.00;;;;;;;;5024139;28;45261;-81
2024/03/07 00:11:56;;;;;;;;;29.33;28.33;;;;;;;;5007590;28;45365;-81
2024/03/07 00:14:21;;;;;;;;;31.67;24.67;;;;;;;;5025086;28;45274;-80
2024/03/07 00:16:46;;;;;;;;;30.67;25.33;;;;;;;;5006768;28;47322;-80
2024/03/07 00:19:14;;;;;;;;;25.67;25.67;;;;;;;;5025063;28;45299;-80
2024/03/07 00:21:39;;;;;;;;;24.00;22.00;;;;;;;;5008671;28;45367;-80
2024/03/07 00:24:05;;;;;;;;;26.67;24.00;;;;;;;;5008575;28;47003;-80
2024/03/07 00:26:30;;;;;;;;;31.33;27.33;;;;;;;;5026665;28;46441;-81
2024/03/07 00:28:55;;;;;;;;;29.33;28.00;;;;;;;;5026678;28;45254;-80
2024/03/07 00:31:21;;;;;;;;;27.33;23.67;;;;;;;;5026559;28;45425;-81
2024/03/07 00:33:46;;;;;;;;;25.67;23.33;;;;;;;;5007897;28;46208;-80
2024/03/07 00:36:12;;;;;;;;;26.67;24.33;;;;;;;;4992192;28;47173;-80
2024/03/07 00:38:37;;;;;;;;;32.67;30.00;;;;;;;;5007192;28;45626;-80
2024/03/07 00:41:02;;;;;;;;;26.33;22.67;;;;;;;;5003536;28;45349;-81
2024/03/07 00:43:27;;;;;;;;;25.67;23.00;;;;;;;;5004543;28;45345;-80
2024/03/07 00:45:53;;;;;;;;;31.33;28.33;;;;;;;;4987263;28;48485;-81
2024/03/07 00:48:18;;;;;;;;;26.33;25.67;;;;;;;;5007292;28;45368;-80
2024/03/07 00:50:43;;;;;;;;;26.67;25.00;;;;;;;;4987195;28;45467;-80
2024/03/07 00:53:09;;;;;;;;;31.67;25.00;;;;;;;;5004118;28;45500;-80
2024/03/07 00:55:34;;;;;;;;;25.00;23.00;;;;;;;;5003861;28;45466;-80
2024/03/07 00:57:59;;;;;;;;;21.67;18.33;;;;;;;;5017737;28;45330;-80
2024/03/07 01:00:24;;;;;;;;;22.00;21.67;;;;;;;;5021844;28;45559;-80
2024/03/07 01:02:52;;;;;;;;;24.00;21.67;;;;;;;;5005443;28;45452;-81
2024/03/07 01:05:18;;;;;;;;;23.33;22.00;;;;;;;;5005821;28;46262;-81
2024/03/07 01:07:45;;;;;;;;;22.67;21.33;;;;;;;;4989439;28;45509;-80
2024/03/07 01:10:11;;;;;;;;;20.67;18.00;;;;;;;;5006552;28;45369;-80
2024/03/07 01:12:36;;;;;;;;;23.00;23.00;;;;;;;;5006940;28;45292;-80
2024/03/07 01:15:04;;;;;;;;;23.33;19.00;;;;;;;;5004260;28;45417;-80
2024/03/07 01:17:29;;;;;;;;;23.33;22.67;;;;;;;;5005145;28;45615;-80
2024/03/07 01:19:54;;;;;;;;;25.00;23.00;;;;;;;;4985196;28;45347;-80
2024/03/07 01:22:19;;;;;;;;;27.33;22.67;;;;;;;;5004162;28;45291;-80
2024/03/07 01:24:45;;;;;;;;;25.00;22.67;;;;;;;;5005488;28;46030;-80
2024/03/07 01:27:10;;;;;;;;;22.67;22.00;;;;;;;;5004105;28;45186;-80
2024/03/07 01:29:35;;;;;;;;;21.67;21.33;;;;;;;;4987976;28;45171;-80
2024/03/07 01:32:00;;;;;;;;;21.67;21.33;;;;;;;;5008239;28;45280;-80
2024/03/07 01:34:25;;;;;;;;;22.33;20.33;;;;;;;;5010455;28;45442;-80
2024/03/07 01:36:51;;;;;;;;;26.67;23.00;;;;;;;;4991663;28;45361;-81
2024/03/07 01:39:16;;;;;;;;;23.67;23.67;;;;;;;;5007848;28;45443;-80
2024/03/07 01:41:42;;;;;;;;;17.67;15.67;;;;;;;;4989472;28;46180;-80
2024/03/07 01:44:07;;;;;;;;;23.33;23.33;;;;;;;;5008074;28;45288;-80
2024/03/07 01:46:32;;;;;;;;;22.00;21.33;;;;;;;;4991493;28;45286;-80
2024/03/07 01:48:58;;;;;;;;;24.00;23.67;;;;;;;;5009343;28;45606;-80
2024/03/07 01:51:23;;;;;;;;;21.33;20.33;;;;;;;;5003993;28;45285;-80
2024/03/07 01:53:48;;;;;;;;;21.00;19.67;;;;;;;;5007260;28;46118;-80
2024/03/07 01:56:14;;;;;;;;;24.33;23.33;;;;;;;;4990608;28;45359;-80
2024/03/07 01:58:40;;;;;;;;;22.67;22.00;;;;;;;;5022092;28;45227;-79
2024/03/07 02:01:05;;;;;;;;;27.67;23.00;;;;;;;;5024103;28;45439;-80
2024/03/07 02:03:31;;;;;;;;;24.33;19.33;;;;;;;;5006009;28;48183;-80
2024/03/07 02:05:56;;;;;;;;;20.33;17.33;;;;;;;;5027090;28;45230;-80
2024/03/07 02:08:21;;;;;;;;;25.67;25.00;;;;;;;;5024602;28;45328;-80
2024/03/07 02:10:47;;;;;;;;;22.67;21.00;;;;;;;;5027683;28;45245;-80
2024/03/07 02:13:12;;;;;;;;;25.67;24.33;;;;;;;;5011605;28;47011;-80
2024/03/07 02:15:37;;;;;;;;;21.33;20.00;;;;;;;;5023660;28;45377;-80
2024/03/07 02:18:03;;;;;;;;;27.67;27.67;;;;;;;;5027161;28;45302;-80
2024/03/07 02:20:28;;;;;;;;;27.00;27.00;;;;;;;;5023151;28;45417;-80
2024/03/07 02:22:54;;;;;;;;;24.67;24.33;;;;;;;;5029459;28;45371;-80
2024/03/07 02:25:19;;;;;;;;;29.00;26.00;;;;;;;;5032706;28;45463;-80
2024/03/07 02:27:45;;;;;;;;;20.00;20.00;;;;;;;;5025059;28;45324;-80
2024/03/07 02:30:12;;;;;;;;;31.00;27.67;;;;;;;;5005850;28;46194;-80
2024/03/07 02:32:37;;;;;;;;;27.00;26.00;;;;;;;;5023875;28;45294;-80
2024/03/07 02:35:03;;;;;;;;;23.00;20.00;;;;;;;;5029727;28;45289;-80
2024/03/07 02:37:28;;;;;;;;;28.50;26.75;;;;;;;;5034836;28;45218;-80
2024/03/07 02:39:54;;;;;;;;;26.33;26.33;;;;;;;;5028111;28;45710;-80
2024/03/07 02:42:19;;;;;;;;;27.00;25.00;;;;;;;;5029226;28;46566;-80
2024/03/07 02:44:44;;;;;;;;;28.67;27.33;;;;;;;;5024384;28;45494;-80
2024/03/07 02:47:09;;;;;;;;;23.00;21.33;;;;;;;;5023471;28;45483;-80
2024/03/07 02:49:35;;;;;;;;;23.33;22.67;;;;;;;;5032564;28;45607;-80
2024/03/07 02:52:00;;;;;;;;;26.67;23.00;;;;;;;;5010954;28;46907;-80
2024/03/07 02:54:25;;;;;;;;;30.00;26.75;;;;;;;;5022563;28;45320;-80
2024/03/07 02:56:50;;;;;;;;;23.33;20.67;;;;;;;;5020634;28;45344;-80
2024/03/07 02:59:16;;;;;;;;;33.00;30.00;;;;;;;;4986031;28;46266;-80
2024/03/07 03:01:41;;;;;;;;;22.33;22.33;;;;;;;;5008502;28;46044;-80
2024/03/07 03:04:07;;;;;;;;;24.33;23.67;;;;;;;;5002639;28;45374;-80
2024/03/07 03:06:32;;;;;;;;;25.00;20.67;;;;;;;;4988031;28;45314;-80
2024/03/07 03:08:58;;;;;;;;;32.67;27.00;;;;;;;;4985011;28;47117;-80
2024/03/07 03:11:24;;;;;;;;;29.50;27.25;;;;;;;;4984441;28;47293;-80
2024/03/07 03:13:49;;;;;;;;;26.33;25.00;;;;;;;;5008931;28;45309;-80
2024/03/07 03:16:14;;;;;;;;;24.33;23.67;;;;;;;;4984103;28;45322;-79
2024/03/07 03:18:39;;;;;;;;;27.50;26.50;;;;;;;;4988391;28;45874;-80
2024/03/07 03:21:05;;;;;;;;;36.50;31.75;;;;;;;;4985536;28;48317;-80
2024/03/07 03:23:30;;;;;;;;;20.00;18.50;;;;;;;;5002308;28;45480;-80
2024/03/07 03:25:55;;;;;;;;;21.50;18.75;;;;;;;;5001908;28;45259;-80
2024/03/07 03:28:21;;;;;;;;;28.67;26.00;;;;;;;;5001553;28;45334;-80
2024/03/07 03:30:47;;;;;;;;;31.50;28.50;;;;;;;;5004444;28;46284;-80
2024/03/07 03:33:12;;;;;;;;;32.50;28.75;;;;;;;;5001438;28;45585;-80
2024/03/07 03:35:37;;;;;;;;;35.00;30.25;;;;;;;;5006508;28;45303;-80
2024/03/07 03:38:03;;;;;;;;;25.00;21.25;;;;;;;;5008939;28;45258;-80
2024/03/07 03:40:28;;;;;;;;;22.67;21.33;;;;;;;;5000429;28;47619;-80
2024/03/07 03:42:53;;;;;;;;;28.67;24.33;;;;;;;;4989088;28;45241;-80
2024/03/07 03:45:19;;;;;;;;;26.00;23.00;;;;;;;;5003734;28;45546;-80
2024/03/07 03:47:44;;;;;;;;;22.00;19.67;;;;;;;;5004841;28;45218;-80
2024/03/07 03:50:10;;;;;;;;;30.00;25.75;;;;;;;;5006065;28;46014;-80
2024/03/07 03:52:36;;;;;;;;;25.00;24.00;;;;;;;;5006788;28;45375;-80
2024/03/07 03:55:02;;;;;;;;;26.25;24.00;;;;;;;;5001710;28;45455;-80
2024/03/07 03:57:29;;;;;;;;;31.00;30.00;;;;;;;;4984401;28;46064;-80
2024/03/07 03:59:54;;;;;;;;;31.00;28.33;;;;;;;;4985519;28;48373;-80
2024/03/07 04:02:20;;;;;;;;;32.00;29.50;;;;;;;;5005970;28;45247;-80
2024/03/07 04:04:45;;;;;;;;;27.67;26.67;;;;;;;;5002839;28;45381;-79
2024/03/07 04:07:12;;;;;;;;;25.75;24.50;;;;;;;;5001681;28;45322;-80
2024/03/07 04:09:37;;;;;;;;;31.50;29.75;;;;;;;;4986382;28;48399;-79
2024/03/07 04:12:02;;;;;;;;;29.50;27.50;;;;;;;;5002307;28;45308;-80
2024/03/07 04:14:27;;;;;;;;;29.75;28.50;;;;;;;;5006112;28;45298;-80
2024/03/07 04:16:56;;;;;;;;;29.00;29.00;;;;;;;;5006026;28;45365;-80
2024/03/07 04:19:22;;;;;;;;;30.50;26.25;;;;;;;;5003251;28;45342;-80
2024/03/07 04:21:47;;;;;;;;;30.75;26.75;;;;;;;;5003323;28;45325;-80
2024/03/07 04:24:12;;;;;;;;;34.25;30.50;;;;;;;;5004416;28;45248;-79
2024/03/07 04:26:37;;;;;;;;;38.00;36.25;;;;;;;;4988782;28;46241;-80
2024/03/07 04:29:02;;;;;;;;;39.25;34.00;;;;;;;;4983700;28;47080;-80
2024/03/07 04:31:28;;;;;;;;;38.25;36.00;;;;;;;;5000265;28;45431;-79
2024/03/07 04:33:53;;;;;;;;;29.75;29.00;;;;;;;;5000493;28;45266;-80
2024/03/07 04:36:21;;;;;;;;;34.25;33.00;;;;;;;;5000747;28;45310;-79
2024/03/07 04:38:46;;;;;;;;;27.25;25.50;;;;;;;;4989269;28;47288;-80
2024/03/07 04:41:11;;;;;;;;;32.25;31.75;;;;;;;;5001966;28;45239;-80
2024/03/07 04:43:37;;;;;;;;;35.50;33.25;;;;;;;;5000309;28;45421;-80
2024/03/07 04:46:02;;;;;;;;;38.25;33.25;;;;;;;;5005883;28;45250;-80
2024/03/07 04:48:27;;;;;;;;;36.25;35.75;;;;;;;;4986341;28;47530;-80
2024/03/07 04:50:53;;;;;;;;;39.75;35.75;;;;;;;;5001799;28;45377;-80
2024/03/07 04:53:18;;;;;;;;;35.00;33.50;;;;;;;;4986811;28;45231;-80
2024/03/07 04:55:43;;;;;;;;;35.75;33.50;;;;;;;;4999676;28;45396;-79
2024/03/07 04:58:09;;;;;;;;;37.75;34.00;;;;;;;;5001778;28;45419;-79
2024/03/07 05:00:34;;;;;;;;;39.00;35.75;;;;;;;;4999869;28;45219;-80
2024/03/07 05:02:59;;;;;;;;;36.50;35.50;;;;;;;;4998062;28;45208;-80
2024/03/07 05:05:26;;;;;;;;;38.25;35.75;;;;;;;;5001979;28;47161;-80
2024/03/07 05:07:52;;;;;;;;;41.50;37.75;;;;;;;;5019246;28;45605;-80
2024/03/07 05:10:17;;;;;;;;;49.25;40.75;;;;;;;;5005650;28;45557;-80
2024/03/07 05:12:42;;;;;;;;;39.25;37.25;;;;;;;;4999804;28;45496;-80
2024/03/07 05:15:09;;;;;;;;;46.25;39.25;;;;;;;;4998445;28;45270;-80
2024/03/07 05:17:37;;;;;;;;;38.75;35.50;;;;;;;;4999402;28;45318;-80
2024/03/07 05:20:03;;;;;;;;;42.50;35.75;;;;;;;;4999441;28;45345;-79
2024/03/07 05:22:30;;;;;;;;;32.50;28.25;;;;;;;;4988234;28;45263;-81
2024/03/07 05:24:56;;;;;;;;;33.75;29.75;;;;;;;;4999450;28;45365;-80
2024/03/07 05:27:22;;;;;;;;;34.00;34.00;;;;;;;;4999976;28;45465;-80
2024/03/07 05:29:47;;;;;;;;;37.25;36.00;;;;;;;;4999321;28;45313;-80
2024/03/07 05:32:28;;;;;;;;;35.25;33.75;;;;;;;;5001841;28;45598;-80
2024/03/07 05:34:53;;;;;;;;;31.25;29.50;;;;;;;;5003115;28;45488;-80
2024/03/07 05:37:21;;;;;;;;;29.50;28.00;;;;;;;;4983257;28;46988;-80
2024/03/07 05:39:46;;;;;;;;;29.00;27.00;;;;;;;;4999012;28;45422;-79
2024/03/07 05:42:13;;;;;;;;;29.25;27.25;;;;;;;;4999489;28;45448;-80
2024/03/07 05:44:39;;;;;;;;;33.25;30.00;;;;;;;;5000189;28;45409;-79
2024/03/07 05:47:05;;;;;;;;;30.00;28.00;;;;;;;;4999256;28;46428;-80
2024/03/07 05:49:31;;;;;;;;;32.00;31.25;;;;;;;;5003397;28;45397;-80
2024/03/07 05:51:57;;;;;;;;;26.25;24.00;;;;;;;;5002873;28;45364;-80
2024/03/07 05:54:22;;;;;;;;;30.00;27.00;;;;;;;;4981380;28;46075;-80
2024/03/07 05:56:48;;;;;;;;;25.67;24.67;;;;;;;;4988246;28;48658;-80
2024/03/07 05:59:13;;;;;;;;;25.50;25.25;;;;;;;;5000516;28;45356;-79
2024/03/07 06:01:39;;;;;;;;;29.00;29.00;;;;;;;;5020284;28;45353;-80
2024/03/07 06:04:05;;;;;;;;;30.75;29.25;;;;;;;;5001005;28;45998;-80
2024/03/07 06:06:31;;;;;;;;;32.25;30.00;;;;;;;;5021723;28;45395;-80
2024/03/07 06:08:57;;;;;;;;;31.00;31.00;;;;;;;;5019402;28;45323;-80
2024/03/07 06:11:22;;;;;;;;;27.50;26.00;;;;;;;;5018922;28;45470;-80
2024/03/07 06:13:51;;;;;;;;;30.50;30.50;;;;;;;;5018447;28;45309;-79
2024/03/07 06:16:16;;;;;;;;;37.00;32.00;;;;;;;;5023013;28;46204;-80
2024/03/07 06:18:41;;;;;;;;;30.50;28.50;;;;;;;;5024889;28;45279;-79
2024/03/07 06:21:08;;;;;;;;;35.50;31.50;;;;;;;;5022294;28;45312;-80
2024/03/07 06:23:33;;;;;;;;;30.25;26.75;;;;;;;;5025917;28;45479;-80
2024/03/07 06:25:59;;;;;;;;;28.25;28.00;;;;;;;;4991618;28;48138;-80
2024/03/07 06:28:24;;;;;;;;;28.25;27.25;;;;;;;;5003483;28;45214;-80
2024/03/07 06:30:49;;;;;;;;;26.25;26.00;;;;;;;;4983558;28;45402;-81
2024/03/07 06:33:16;;;;;;;;;30.50;30.50;;;;;;;;4983803;28;47466;-81
2024/03/07 06:35:41;;;;;;;;;29.75;28.00;;;;;;;;5001663;28;45364;-80
2024/03/07 06:38:08;;;;;;;;;33.00;29.00;;;;;;;;5001739;28;46003;-80
2024/03/07 06:40:33;;;;;;;;;31.75;30.50;;;;;;;;5021944;28;45307;-80
2024/03/07 06:43:03;;;;;;;;;33.25;32.00;;;;;;;;5021610;28;45324;-80
2024/03/07 06:45:29;;;;;;;;;38.50;37.00;;;;;;;;5021672;28;45935;-80
2024/03/07 06:47:54;;;;;;;;;37.50;36.25;;;;;;;;5021530;28;45254;-81
2024/03/07 06:50:23;;;;;;;;;32.75;32.00;;;;;;;;5021660;28;45396;-81
2024/03/07 06:52:48;;;;;;;;;39.50;38.00;;;;;;;;5021597;28;45380;-81
2024/03/07 06:55:17;;;;;;;;;33.75;32.25;;;;;;;;5004696;28;47357;-81
2024/03/07 06:57:42;;;;;;;;;32.00;31.00;;;;;;;;5006563;28;45266;-79
2024/03/07 07:00:10;;;;;;;;;37.50;34.50;;;;;;;;5003272;28;45312;-80
2024/03/07 07:02:39;;;;;;;;;36.25;34.25;;;;;;;;5024083;28;45261;-81
2024/03/07 07:05:18;;;;;;;;;29.50;29.50;;;;;;;;5009116;28;47508;-81
2024/03/07 07:07:43;;;;;;;;;33.25;30.75;;;;;;;;5021304;28;45174;-80
2024/03/07 07:10:15;;;;;;;;;40.00;36.50;;;;;;;;5021385;28;45367;-81
2024/03/07 07:12:40;;;;;;;;;30.75;28.25;;;;;;;;5005901;28;46124;-80
2024/03/07 07:15:06;;;;;;;;;31.50;30.25;;;;;;;;5025539;28;46575;-80
2024/03/07 07:17:31;;;;;;;;;32.25;30.00;;;;;;;;5006807;28;45166;-79
2024/03/07 07:19:59;;;;;;;;;36.50;35.25;;;;;;;;5003119;28;45198;-76
2024/03/07 07:22:25;;;;;;;;;22.75;20.25;;;;;;;;4983466;28;47527;-77
2024/03/07 07:24:50;;;;;;;;;27.67;23.33;;;;;;;;5000974;28;45321;-77
2024/03/07 07:27:15;;;;;;;;;19.33;18.00;;;;;;;;5001131;28;45424;-76
2024/03/07 07:29:41;;;;;;;;;16.00;16.00;;;;;;;;4983238;28;45424;-75
2024/03/07 07:32:07;;;;;;;;;21.33;19.00;;;;;;;;5000869;28;45281;-77
2024/03/07 07:34:32;;;;;;;;;21.00;19.33;;;;;;;;5000797;28;45261;-76
2024/03/07 07:36:57;;;;;;;;;21.00;18.67;;;;;;;;5000864;28;45447;-77
2024/03/07 07:39:23;;;;;;;;;21.00;19.67;;;;;;;;5000762;28;45566;-76
2024/03/07 07:41:48;;;;;;;;;16.00;16.00;;;;;;;;4982764;28;46187;-76
2024/03/07 07:44:13;;;;;;;;;24.33;20.00;;;;;;;;4982189;28;47326;-76
2024/03/07 07:46:40;;;;;;;;;25.00;22.67;;;;;;;;5000279;28;45320;-77
2024/03/07 07:49:05;;;;;;;;;30.67;28.33;;;;;;;;5000184;28;45325;-77
2024/03/07 07:51:30;;;;;;;;;20.67;19.67;;;;;;;;4999611;28;45475;-77
2024/03/07 07:53:56;;;;;;;;;19.00;18.00;;;;;;;;4981911;28;47209;-76
2024/03/07 07:56:22;;;;;;;;;19.67;19.67;;;;;;;;5000308;28;45572;-76
2024/03/07 07:58:47;;;;;;;;;21.33;19.00;;;;;;;;5019893;28;45216;-76
2024/03/07 08:01:14;;;;;;;;;18.33;18.33;;;;;;;;5010017;28;45554;-75
2024/03/07 08:03:40;;;;;;;;;20.33;17.00;;;;;;;;4986053;28;46319;-77
2024/03/07 08:06:06;;;;;;;;;18.00;17.00;;;;;;;;5000039;28;45314;-76
2024/03/07 08:08:31;;;;;;;;;14.33;14.33;;;;;;;;5000524;28;45450;-75
2024/03/07 08:10:56;;;;;;;;;16.00;15.00;;;;;;;;5000477;28;45246;-76
2024/03/07 08:13:21;;;;;;;;;19.67;15.33;;;;;;;;4999719;28;45262;-77
2024/03/07 08:15:46;;;;;;;;;17.67;16.00;;;;;;;;5000305;28;45382;-77
2024/03/07 08:18:12;;;;;;;;;32.00;26.33;;;;;;;;4982058;28;45546;-77
2024/03/07 08:20:37;;;;;;;;;16.00;14.33;;;;;;;;5000201;28;45396;-77
2024/03/07 08:23:02;;;;;;;;;19.33;18.00;;;;;;;;4999585;28;45435;-77
2024/03/07 08:25:29;;;;;;;;;15.00;15.00;;;;;;;;5000292;28;45416;-77
2024/03/07 08:27:56;;;;;;;;;14.67;14.00;;;;;;;;4999939;28;45408;-76
2024/03/07 08:30:21;;;;;;;;;21.00;18.00;;;;;;;;4999609;28;45246;-76
2024/03/07 08:32:47;;;;;;;;;16.67;16.00;;;;;;;;5009362;28;45767;-76
2024/03/07 08:35:12;;;;;;;;;17.00;13.00;;;;;;;;5019015;28;45343;-76
2024/03/07 08:37:57;;;;;;;;;17.00;13.67;;;;;;;;5017987;28;45466;-76
2024/03/07 08:40:32;;;;;;;;;16.33;15.33;;;;;;;;5019717;28;45234;-78
2024/03/07 08:42:58;;;;;;;;;18.33;16.67;;;;;;;;4962141;28;48199;-78
2024/03/07 08:45:23;;;;;;;;;23.00;21.33;;;;;;;;4969197;28;45596;-77
2024/03/07 08:47:50;;;;;;;;;16.33;16.33;;;;;;;;4989557;28;45338;-77
2024/03/07 08:50:17;;;;;;;;;16.33;16.00;;;;;;;;4999437;28;45400;-77
2024/03/07 08:52:44;;;;;;;;;18.33;18.33;;;;;;;;5017936;28;45986;-77
2024/03/07 08:55:09;;;;;;;;;19.67;17.33;;;;;;;;4999769;28;45317;-77
2024/03/07 08:57:35;;;;;;;;;16.67;16.00;;;;;;;;5009014;28;45350;-77
2024/03/07 09:00:01;;;;;;;;;20.33;19.33;;;;;;;;5019203;28;45451;-77
2024/03/07 09:02:26;;;;;;;;;19.00;18.33;;;;;;;;5018892;28;45280;-76
2024/03/07 09:04:51;;;;;;;;;20.67;19.00;;;;;;;;5019287;28;45236;-77
2024/03/07 09:07:17;;;;;;;;;18.67;17.00;;;;;;;;4993483;28;45337;-77
2024/03/07 09:09:43;;;;;;;;;21.00;20.00;;;;;;;;4981242;28;45956;-76
2024/03/07 09:12:08;;;;;;;;;17.00;16.67;;;;;;;;4999165;28;45992;-76
2024/03/07 09:14:33;;;;;;;;;19.67;18.67;;;;;;;;4980966;28;45249;-76
2024/03/07 09:16:58;;;;;;;;;39.00;32.67;;;;;;;;4998925;28;45163;-76
2024/03/07 09:19:24;;;;;;;;;48.25;40.00;;;;;;;;4980191;28;46470;-78
2024/03/07 09:21:55;;;;;;;;;44.00;37.00;;;;;;;;4981977;28;47582;-78
2024/03/07 09:24:28;;;;;;;;;21.67;20.33;;;;;;;;4977994;28;45282;-78
2024/03/07 09:26:56;;;;;;;;;20.67;18.33;;;;;;;;4980636;28;45562;-77
2024/03/07 09:29:22;;;;;;;;;23.00;21.33;;;;;;;;4994883;28;45357;-77
2024/03/07 09:31:49;;;;;;;;;18.00;16.67;;;;;;;;4998350;28;45498;-79
2024/03/07 09:34:16;;;;;;;;;39.00;34.67;;;;;;;;4979732;28;45198;-78
2024/03/07 09:36:41;;;;;;;;;32.33;31.00;;;;;;;;5000469;28;45904;-79
2024/03/07 09:39:08;;;;;;;;;34.33;30.00;;;;;;;;4980195;28;45979;-79
2024/03/07 09:41:33;;;;;;;;;31.33;26.67;;;;;;;;4980726;28;47955;-78
2024/03/07 09:43:59;;;;;;;;;31.33;30.33;;;;;;;;4980954;28;45666;-77
2024/03/07 09:46:25;;;;;;;;;28.67;27.33;;;;;;;;4999248;28;45369;-78
2024/03/07 09:48:54;;;;;;;;;35.00;29.00;;;;;;;;4980949;28;45559;-76
2024/03/07 09:51:19;;;;;;;;;44.67;35.33;;;;;;;;5000506;28;45233;-78
2024/03/07 09:53:45;;;;;;;;;46.67;38.67;;;;;;;;4984418;28;46069;-79
2024/03/07 09:56:13;;;;;;;;;32.67;31.33;;;;;;;;5000793;28;46190;-77
2024/03/07 09:58:39;;;;;;;;;33.00;30.00;;;;;;;;5003198;28;45384;-78
2024/03/07 10:01:05;;;;;;;;;30.67;28.00;;;;;;;;4998852;28;46041;-78
2024/03/07 10:03:32;;;;;;;;;29.00;26.67;;;;;;;;5002280;28;45441;-78
2024/03/07 10:05:57;;;;;;;;;35.00;31.67;;;;;;;;4983845;28;45327;-77
2024/03/07 10:08:23;;;;;;;;;39.67;33.67;;;;;;;;5001998;28;45223;-78
2024/03/07 10:10:49;;;;;;;;;52.75;42.50;;;;;;;;4984984;28;47807;-79
2024/03/07 10:13:18;;;;;;;;;48.33;38.67;;;;;;;;4993030;28;46260;-77
2024/03/07 10:15:43;;;;;;;;;37.00;34.00;;;;;;;;5003424;28;45344;-78
2024/03/07 10:18:13;;;;;;;;;29.67;29.33;;;;;;;;4985969;28;46110;-77
2024/03/07 10:20:39;;;;;;;;;36.33;31.33;;;;;;;;4988293;28;47337;-78
2024/03/07 10:23:07;;;;;;;;;35.67;32.67;;;;;;;;5004574;28;45347;-78
2024/03/07 10:25:33;;;;;;;;;39.00;33.00;;;;;;;;4998651;28;45430;-78
2024/03/07 10:27:58;;;;;;;;;39.33;31.67;;;;;;;;4996428;28;46939;-77
2024/03/07 10:30:25;;;;;;;;;34.00;31.33;;;;;;;;5005804;28;45767;-77
2024/03/07 10:32:57;;;;;;;;;35.00;31.00;;;;;;;;5022830;28;45242;-76
2024/03/07 10:35:26;;;;;;;;;38.67;30.67;;;;;;;;5042586;28;44850;-76
2024/03/07 10:37:54;;;;;;;;;37.33;31.00;;;;;;;;5021190;28;45393;-77
2024/03/07 10:40:22;;;;;;;;;32.33;31.00;;;;;;;;5039683;28;46320;-75
2024/03/07 10:42:51;;;;;;;;;42.00;33.00;;;;;;;;5038467;28;45420;-76
2024/03/07 10:45:17;;;;;;;;;31.67;30.67;;;;;;;;5026524;28;45378;-76
2024/03/07 10:47:42;;;;;;;;;33.33;31.00;;;;;;;;5041074;28;45166;-77
2024/03/07 10:50:28;;;;;;;;;38.67;32.00;;;;;;;;5036576;28;45429;-76
2024/03/07 10:53:02;;;;;;;;;39.00;33.67;;;;;;;;5014180;28;45318;-77
2024/03/07 10:55:36;;;;;;;;;40.00;33.67;;;;;;;;4999249;28;44692;-78
2024/03/07 10:58:02;;;;;;;;;34.67;31.33;;;;;;;;5002072;28;45198;-79
2024/03/07 11:00:35;;;;;;;;;34.67;30.67;;;;;;;;4995022;28;46359;-77
2024/03/07 11:03:02;;;;;;;;;38.33;33.00;;;;;;;;4994407;28;45421;-78
2024/03/07 11:05:31;;;;;;;;;35.00;32.33;;;;;;;;4985990;28;44716;-78
2024/03/07 11:07:58;;;;;;;;;35.67;32.33;;;;;;;;5009050;28;45301;-78
2024/03/07 11:10:24;;;;;;;;;39.67;34.67;;;;;;;;5012451;28;45106;-79
2024/03/07 11:12:51;;;;;;;;;40.00;33.00;;;;;;;;5003432;28;45278;-78
2024/03/07 11:15:19;;;;;;;;;40.67;34.33;;;;;;;;4998222;28;45275;-78
2024/03/07 11:17:46;;;;;;;;;35.00;31.00;;;;;;;;4991520;28;45297;-77
2024/03/07 11:20:27;;;;;;;;;37.00;32.33;;;;;;;;4970029;28;47426;-77
2024/03/07 11:22:55;;;;;;;;;39.33;33.67;;;;;;;;4995375;28;45298;-77
2024/03/07 11:25:21;;;;;;;;;43.00;35.67;;;;;;;;4993145;28;45426;-78
2024/03/07 11:27:55;;;;;;;;;46.00;37.00;;;;;;;;5002162;28;46331;-76
2024/03/07 11:30:21;;;;;;;;;41.33;34.67;;;;;;;;5017092;28;45989;-76
2024/03/07 11:32:48;;;;;;;;;44.67;38.33;;;;;;;;5013667;28;45174;-76
2024/03/07 11:35:14;;;;;;;;;47.00;37.00;;;;;;;;4992997;28;45380;-78
2024/03/07 11:37:43;;;;;;;;;39.33;34.67;;;;;;;;5011789;28;45510;-79
2024/03/07 11:40:17;;;;;;;;;35.33;31.00;;;;;;;;5015116;28;45218;-79
2024/03/07 11:42:44;;;;;;;;;34.33;30.67;;;;;;;;5014680;28;45343;-78
2024/03/07 11:45:09;;;;;;;;;43.67;35.00;;;;;;;;5017577;28;45276;-80
2024/03/07 11:47:37;;;;;;;;;41.67;35.00;;;;;;;;5011400;28;45565;-79
2024/03/07 11:50:08;;;;;;;;;44.00;36.33;;;;;;;;4988423;28;47395;-79
2024/03/07 11:52:33;;;;;;;;;45.00;37.00;;;;;;;;5014755;28;45131;-79
2024/03/07 11:55:03;;;;;;;;;41.33;34.33;;;;;;;;5016087;28;45729;-79
2024/03/07 11:57:32;;;;;;;;;43.00;35.67;;;;;;;;5019097;28;45347;-79
2024/03/07 12:00:00;;;;;;;;;46.00;39.00;;;;;;;;5017547;28;45365;-78
2024/03/07 12:02:25;;;;;;;;;38.00;32.00;;;;;;;;5011319;28;46335;-78
2024/03/07 12:04:51;;;;;;;;;37.33;33.00;;;;;;;;4998305;28;45484;-79
2024/03/07 12:07:22;;;;;;;;;41.33;36.00;;;;;;;;5013706;28;45018;-79
2024/03/07 12:09:50;;;;;;;;;42.33;35.33;;;;;;;;5010410;28;46402;-79
2024/03/07 12:12:17;;;;;;;;;39.67;33.67;;;;;;;;4977511;28;45513;-77
2024/03/07 12:14:42;;;;;;;;;40.00;34.33;;;;;;;;4986848;28;45445;-78
2024/03/07 12:17:07;;;;;;;;;38.67;34.00;;;;;;;;4971700;28;47527;-78
2024/03/07 12:19:33;;;;;;;;;40.00;34.33;;;;;;;;4992636;28;45287;-78
2024/03/07 12:22:02;;;;;;;;;39.00;33.00;;;;;;;;4979050;28;45604;-78
2024/03/07 12:24:27;;;;;;;;;40.33;32.00;;;;;;;;4983346;28;45249;-79
2024/03/07 12:26:54;;;;;;;;;37.00;31.33;;;;;;;;4993684;28;45434;-79
2024/03/07 12:29:25;;;;;;;;;40.33;31.67;;;;;;;;4966776;28;48175;-78
2024/03/07 12:31:50;;;;;;;;;38.67;32.67;;;;;;;;4971705;28;46017;-77
2024/03/07 12:34:15;;;;;;;;;38.67;33.00;;;;;;;;4987547;28;45283;-79
2024/03/07 12:36:47;;;;;;;;;41.33;33.67;;;;;;;;4990323;28;45385;-78
2024/03/07 12:39:25;;;;;;;;;45.33;37.00;;;;;;;;4972464;28;48085;-79
2024/03/07 12:41:53;;;;;;;;;36.33;32.00;;;;;;;;4994178;28;45269;-80
2024/03/07 12:44:19;;;;;;;;;35.67;31.00;;;;;;;;4993213;28;45279;-77
2024/03/07 12:46:47;;;;;;;;;29.33;27.67;;;;;;;;4993137;28;45413;-79
2024/03/07 12:49:15;;;;;;;;;41.33;32.67;;;;;;;;4992353;28;45382;-78
2024/03/07 12:51:41;;;;;;;;;36.33;32.67;;;;;;;;4970205;28;45259;-78
2024/03/07 12:54:07;;;;;;;;;44.00;37.00;;;;;;;;4992349;28;44774;-78
2024/03/07 12:56:34;;;;;;;;;46.33;37.33;;;;;;;;4973534;28;47084;-79
2024/03/07 12:59:01;;;;;;;;;44.67;37.33;;;;;;;;4969437;28;47169;-78
2024/03/07 13:01:26;;;;;;;;;43.67;35.33;;;;;;;;4977726;28;45258;-78
2024/03/07 13:03:53;;;;;;;;;42.33;34.67;;;;;;;;4993762;28;45506;-78
2024/03/07 13:06:29;;;;;;;;;33.67;29.67;;;;;;;;4993160;28;45022;-78
2024/03/07 13:08:56;;;;;;;;;38.67;31.00;;;;;;;;4976372;28;47667;-78
2024/03/07 13:11:21;;;;;;;;;38.67;33.00;;;;;;;;4996395;28;45416;-79
2024/03/07 13:13:47;;;;;;;;;38.00;33.00;;;;;;;;4994134;28;45335;-79
2024/03/07 13:16:12;;;;;;;;;35.00;30.00;;;;;;;;4976353;28;45958;-76
2024/03/07 13:18:37;;;;;;;;;42.33;34.67;;;;;;;;4998454;28;45198;-76
2024/03/07 13:21:06;;;;;;;;;39.33;32.00;;;;;;;;4996686;28;44674;-79
2024/03/07 13:23:32;;;;;;;;;35.33;31.00;;;;;;;;4977167;28;45379;-79
2024/03/07 13:25:57;;;;;;;;;36.33;31.33;;;;;;;;4975530;28;46112;-79
2024/03/07 13:28:25;;;;;;;;;36.33;31.00;;;;;;;;4991154;28;45506;-76
2024/03/07 13:30:50;;;;;;;;;36.00;32.67;;;;;;;;4979839;28;45235;-77
2024/03/07 13:33:16;;;;;;;;;39.67;32.67;;;;;;;;4978856;28;45318;-76
2024/03/07 13:35:41;;;;;;;;;38.33;31.33;;;;;;;;4973833;28;45166;-76
2024/03/07 13:38:07;;;;;;;;;35.00;30.00;;;;;;;;4967253;28;47475;-76
2024/03/07 13:40:38;;;;;;;;;41.33;34.33;;;;;;;;4978589;28;45484;-76
2024/03/07 13:43:05;;;;;;;;;39.00;33.00;;;;;;;;4992302;28;45279;-76
2024/03/07 13:45:31;;;;;;;;;36.67;31.67;;;;;;;;4972197;28;47247;-77
2024/03/07 13:47:58;;;;;;;;;40.33;33.33;;;;;;;;4987008;28;45382;-77
2024/03/07 13:50:24;;;;;;;;;38.33;33.33;;;;;;;;4985195;28;45284;-73
2024/03/07 13:55:42;;;;;;;;;36.33;31.67;;;;;;;;4983224;28;45223;-77
2024/03/07 13:58:14;;;;;;;;;31.00;28.67;;;;;;;;4997278;28;46160;-77
2024/03/07 14:00:48;;;;;;;;;35.00;29.67;;;;;;;;5001127;28;45401;-76
2024/03/07 14:03:29;;;;;;;;;34.00;30.67;;;;;;;;5006117;28;45455;-76
2024/03/07 14:06:00;;;;;;;;;35.67;31.00;;;;;;;;5006319;28;45231;-77
2024/03/07 14:08:25;;;;;;;;;37.67;31.67;;;;;;;;5004102;28;45296;-77
2024/03/07 14:10:56;;;;;;;;;39.25;33.25;;;;;;;;5014788;28;45155;-77
2024/03/07 14:13:23;;;;;;;;;37.67;31.67;;;;;;;;5028130;28;45373;-78
2024/03/07 14:16:07;;;;;;;;;36.33;30.33;;;;;;;;5026863;28;45598;-78